createdAt,value
2019-04-26T00:01:37.731Z,4.80
2019-04-26T00:04:45.084Z,4.08
2019-04-26T00:07:52.706Z,3.77
2019-04-26T00:11:14.342Z,3.65
2019-04-26T00:14:55.239Z,3.90
2019-04-26T00:18:02.183Z,4.17
2019-04-26T00:21:09.596Z,3.80
2019-04-26T00:24:19.348Z,4.00
2019-04-26T00:27:26.227Z,4.45
2019-04-26T00:30:32.855Z,4.62
2019-04-26T00:33:39.541Z,3.20
2019-04-26T00:36:48.606Z,4.03
2019-04-26T00:39:56.204Z,4.75
2019-04-26T00:43:06.355Z,5.40
2019-04-26T00:46:14.706Z,4.80
2019-04-26T00:49:24.743Z,3.85
2019-04-26T00:52:31.929Z,4.17
2019-04-26T00:55:38.842Z,4.80
2019-04-26T00:58:45.987Z,3.22
2019-04-26T01:01:57.294Z,3.65
2019-04-26T01:05:04.035Z,4.25
2019-04-26T01:08:10.609Z,4.50
2019-04-26T01:11:17.671Z,4.97
2019-04-26T01:14:24.402Z,4.58
2019-04-26T01:17:31.083Z,3.90
2019-04-26T01:20:40.869Z,4.00
2019-04-26T01:23:50.649Z,4.10
2019-04-26T01:27:00.232Z,6.30
2019-04-26T01:30:11.509Z,4.08
2019-04-26T01:33:18.753Z,4.00
2019-04-26T01:36:29.126Z,3.60
2019-04-26T01:39:38.441Z,5.05
2019-04-26T01:42:54.441Z,3.98
2019-04-26T01:46:10.372Z,4.28
2019-04-26T01:49:21.341Z,6.05
2019-04-26T01:52:29.737Z,4.72
2019-04-26T01:55:36.576Z,3.20
2019-04-26T01:58:43.550Z,4.15
2019-04-26T02:02:08.329Z,4.67
2019-04-26T02:05:22.588Z,3.72
2019-04-26T02:08:30.374Z,4.05
2019-04-26T02:11:37.387Z,4.08
2019-04-26T02:14:44.178Z,3.58
2019-04-26T02:17:54.130Z,3.83
2019-04-26T02:21:16.344Z,4.45
2019-04-26T02:24:37.923Z,3.70
2019-04-26T02:27:44.668Z,4.62
2019-04-26T02:30:51.593Z,3.92
2019-04-26T02:33:59.102Z,3.87
2019-04-26T02:37:08.978Z,5.10
2019-04-26T02:40:18.730Z,4.08
2019-04-26T02:43:28.607Z,5.47
2019-04-26T02:46:48.862Z,4.28
2019-04-26T02:50:03.093Z,4.25
2019-04-26T02:53:39.693Z,3.85
2019-04-26T02:56:48.559Z,4.90
2019-04-26T03:00:05.531Z,3.30
2019-04-26T03:03:14.137Z,4.20
2019-04-26T03:06:20.928Z,3.85
2019-04-26T03:09:31.355Z,3.20
2019-04-26T03:12:43.205Z,4.20
2019-04-26T03:16:10.849Z,4.62
2019-04-26T03:19:36.207Z,4.50
2019-04-26T03:23:16.862Z,4.42
2019-04-26T03:26:48.343Z,4.67
2019-04-26T03:30:22.098Z,4.22
2019-04-26T03:34:13.877Z,3.87
2019-04-26T03:37:44.523Z,3.45
2019-04-26T03:41:08.909Z,3.75
2019-04-26T03:44:38.853Z,4.17
2019-04-26T03:48:09.627Z,3.27
2019-04-26T03:51:45.283Z,3.92
2019-04-26T03:54:56.501Z,4.78
2019-04-26T03:58:08.730Z,5.47
2019-04-26T04:01:16.835Z,4.08
2019-04-26T04:04:37.726Z,5.00
2019-04-26T04:07:50.958Z,4.10
2019-04-26T04:11:05.359Z,2.55
2019-04-26T04:14:40.500Z,4.53
2019-04-26T04:18:12.444Z,3.10
2019-04-26T04:21:47.057Z,3.90
2019-04-26T04:24:58.816Z,4.58
2019-04-26T04:28:27.393Z,4.03
2019-04-26T04:31:42.160Z,3.65
2019-04-26T04:34:53.713Z,5.60
2019-04-26T04:38:11.409Z,3.72
2019-04-26T04:41:34.199Z,3.52
2019-04-26T04:45:06.177Z,4.05
2019-04-26T04:48:22.035Z,3.42
2019-04-26T04:52:27.451Z,4.33
2019-04-26T04:56:16.787Z,3.37
2019-04-26T05:00:00.726Z,5.17
2019-04-26T05:03:28.914Z,4.15
2019-04-26T05:07:16.988Z,4.85
2019-04-26T05:10:37.003Z,5.40
2019-04-26T05:14:03.989Z,5.37
2019-04-26T05:17:59.292Z,4.80
2019-04-26T05:21:30.545Z,4.12
2019-04-26T05:24:59.884Z,4.65
2019-04-26T05:28:19.299Z,4.00
2019-04-26T05:32:29.545Z,3.85
2019-04-26T05:37:06.860Z,3.83
2019-04-26T05:40:42.852Z,5.75
2019-04-26T05:44:17.711Z,5.62
2019-04-26T05:48:05.241Z,4.35
2019-04-26T05:52:14.127Z,4.08
2019-04-26T05:56:38.263Z,3.50
2019-04-26T06:00:24.665Z,4.55
2019-04-26T06:04:25.274Z,4.67
2019-04-26T06:08:31.230Z,4.30
2019-04-26T06:11:42.744Z,3.22
2019-04-26T06:15:43.501Z,5.40
2019-04-26T06:19:18.091Z,3.20
2019-04-26T06:22:59.714Z,3.70
2019-04-26T06:27:14.152Z,4.12
2019-04-26T06:30:45.062Z,3.12
2019-04-26T06:34:07.687Z,3.37
2019-04-26T06:37:57.310Z,2.08
2019-04-26T06:42:00.778Z,3.40
2019-04-26T06:45:43.774Z,3.62
2019-04-26T06:49:31.090Z,4.20
2019-04-26T06:52:59.672Z,2.35
2019-04-26T06:56:53.023Z,3.35
2019-04-26T07:00:20.325Z,3.35
2019-04-26T07:03:49.272Z,3.37
2019-04-26T07:07:18.907Z,3.02
2019-04-26T07:11:11.804Z,2.95
2019-04-26T07:15:03.824Z,2.95
2019-04-26T07:18:46.825Z,3.25
2019-04-26T07:22:34.744Z,2.15
2019-04-26T07:26:45.329Z,3.52
2019-04-26T07:30:23.536Z,3.95
2019-04-26T07:34:32.249Z,2.67
2019-04-26T07:38:52.947Z,2.98
2019-04-26T07:42:53.600Z,3.25
2019-04-26T07:46:43.624Z,3.00
2019-04-26T07:50:57.121Z,2.85
2019-04-26T07:55:18.369Z,3.87
2019-04-26T07:59:27.273Z,3.15
2019-04-26T08:02:57.349Z,4.08
2019-04-26T08:06:36.868Z,2.90
2019-04-26T08:09:59.905Z,2.62
2019-04-26T08:13:13.756Z,3.25
2019-04-26T08:16:56.787Z,2.95
2019-04-26T08:20:28.196Z,3.35
2019-04-26T08:23:44.544Z,4.75
2019-04-26T08:27:13.637Z,6.33
2019-04-26T08:30:19.301Z,2.90
2019-04-26T08:33:35.410Z,3.80
2019-04-26T08:37:06.718Z,3.30
2019-04-26T08:40:23.296Z,2.33
2019-04-26T08:43:49.981Z,3.35
2019-04-26T08:47:14.081Z,2.10
2019-04-26T08:50:20.748Z,2.87
2019-04-26T08:53:31.870Z,3.27
2019-04-26T08:56:46.676Z,2.85
2019-04-26T08:59:57.838Z,3.65
2019-04-26T09:03:18.455Z,4.10
2019-04-26T09:06:49.845Z,4.08
2019-04-26T09:10:01.540Z,3.62
2019-04-26T09:13:11.576Z,3.02
2019-04-26T09:16:21.118Z,3.95
2019-04-26T09:19:30.540Z,3.60
2019-04-26T09:23:04.948Z,5.60
2019-04-26T09:26:14.936Z,1.62
2019-04-26T09:29:31.777Z,3.45
2019-04-26T09:33:03.556Z,4.33
2019-04-26T09:36:10.133Z,5.40
2019-04-26T09:39:17.445Z,3.00
2019-04-26T09:42:41.766Z,3.30
2019-04-26T09:45:59.590Z,3.83
2019-04-26T09:49:29.186Z,3.58
2019-04-26T09:52:46.113Z,3.70
2019-04-26T09:55:55.684Z,6.62
2019-04-26T09:59:05.700Z,4.05
2019-04-26T10:02:11.423Z,3.55
2019-04-26T10:05:22.162Z,4.85
2019-04-26T10:08:26.826Z,2.87
2019-04-26T10:11:39.587Z,4.30
2019-04-26T10:15:12.316Z,3.95
2019-04-26T10:18:20.327Z,3.17
2019-04-26T10:21:27.736Z,3.72
2019-04-26T10:24:34.672Z,5.22
2019-04-26T10:27:44.461Z,3.90
2019-04-26T10:30:51.450Z,3.87
2019-04-26T10:33:58.215Z,4.55
2019-04-26T10:41:08.336Z,3.35
2019-04-26T10:44:14.876Z,4.37
2019-04-26T10:47:21.405Z,6.25
2019-04-26T10:50:28.787Z,4.20
2019-04-26T10:53:44.481Z,4.67
2019-04-26T10:56:59.624Z,4.95
2019-04-26T11:00:14.152Z,4.70
2019-04-26T11:03:19.514Z,3.00
2019-04-26T11:06:27.873Z,4.85
2019-04-26T11:09:35.146Z,4.80
2019-04-26T11:12:44.829Z,4.08
2019-04-26T11:15:52.791Z,4.40
2019-04-26T11:19:01.107Z,7.58
2019-04-26T11:22:07.994Z,3.62
2019-04-26T11:25:14.698Z,4.65
2019-04-26T11:28:22.908Z,3.10
2019-04-26T11:31:30.800Z,3.80
2019-04-26T11:34:42.822Z,5.47
2019-04-26T11:37:50.709Z,8.60
2019-04-26T11:41:05.779Z,4.58
2019-04-26T11:44:06.160Z,4.10
2019-04-26T11:47:12.939Z,4.22
2019-04-26T11:50:20.858Z,4.33
2019-04-26T11:53:27.353Z,3.10
2019-04-26T11:56:37.465Z,7.53
2019-04-26T11:59:44.193Z,3.60
2019-04-26T12:02:52.273Z,3.95
2019-04-26T12:06:17.713Z,3.70
2019-04-26T12:09:49.246Z,3.98
2019-04-26T12:13:05.126Z,4.28
2019-04-26T12:16:04.218Z,4.33
2019-04-26T12:19:14.309Z,3.77
2019-04-26T12:22:20.025Z,3.80
2019-04-26T12:25:26.744Z,5.60
2019-04-26T12:28:36.346Z,4.97
2019-04-26T12:31:43.042Z,4.47
2019-04-26T12:34:52.157Z,5.40
2019-04-26T12:38:02.844Z,6.12
2019-04-26T12:41:11.629Z,5.00
2019-04-26T12:44:19.289Z,5.95
2019-04-26T12:47:34.529Z,3.65
2019-04-26T12:50:39.443Z,4.20
2019-04-26T12:53:47.354Z,5.10
2019-04-26T12:56:55.605Z,4.05
2019-04-26T13:00:03.547Z,3.85
2019-04-26T13:03:20.023Z,4.25
2019-04-26T13:06:19.076Z,5.20
2019-04-26T13:09:26.735Z,3.50
2019-04-26T13:12:44.264Z,5.62
2019-04-26T13:15:56.815Z,3.87
2019-04-26T13:19:06.604Z,4.30
2019-04-26T13:22:14.283Z,5.87
2019-04-26T13:25:26.509Z,4.40
2019-04-26T13:28:29.499Z,4.97
2019-04-26T13:31:38.838Z,3.75
2019-04-26T13:34:45.516Z,4.83
2019-04-26T13:37:51.982Z,5.90
2019-04-26T13:40:59.841Z,3.50
2019-04-26T13:44:07.200Z,5.42
2019-04-26T13:47:47.666Z,4.83
2019-04-26T13:51:01.280Z,4.30
2019-04-26T13:54:07.011Z,5.35
2019-04-26T13:57:13.552Z,4.65
2019-04-26T14:00:26.439Z,4.67
2019-04-26T14:03:34.551Z,4.10
2019-04-26T14:06:41.054Z,4.25
2019-04-26T14:09:48.153Z,4.70
2019-04-26T14:12:54.659Z,4.78
2019-04-26T14:16:01.260Z,5.35
2019-04-26T14:19:14.448Z,5.90
2019-04-26T14:22:20.172Z,5.65
2019-04-26T14:25:32.050Z,6.10
2019-04-26T14:28:38.728Z,5.40
2019-04-26T14:31:47.249Z,6.08
2019-04-26T14:34:53.494Z,4.95
2019-04-26T14:38:00.154Z,5.20
2019-04-26T14:41:06.925Z,7.35
2019-04-26T14:44:15.586Z,8.00
2019-04-26T14:47:22.049Z,8.15
2019-04-26T14:50:32.088Z,9.55
2019-04-26T14:53:38.067Z,5.85
2019-04-26T14:56:52.120Z,9.90
2019-04-26T14:59:58.504Z,8.80
2019-04-26T15:03:17.393Z,8.33
2019-04-26T15:06:29.595Z,8.25
2019-04-26T15:09:36.735Z,10.30
2019-04-26T15:12:48.797Z,11.57
2019-04-26T15:15:55.111Z,10.85
2019-04-26T15:19:01.764Z,13.88
2019-04-26T15:22:10.305Z,11.08
2019-04-26T15:25:19.763Z,12.05
2019-04-26T15:28:27.043Z,12.37
2019-04-26T15:31:34.178Z,13.40
2019-04-26T15:34:40.842Z,12.68
2019-04-26T15:37:47.317Z,13.05
2019-04-26T15:41:16.727Z,15.23
2019-04-26T15:49:15.699Z,12.28
2019-04-26T15:52:23.544Z,9.55
2019-04-26T15:55:33.854Z,11.35
2019-04-26T15:58:45.925Z,14.58
2019-04-26T16:01:52.147Z,14.13
2019-04-26T16:04:58.775Z,13.88
2019-04-26T16:08:07.288Z,9.50
2019-04-26T16:11:14.043Z,11.33
2019-04-26T16:14:26.391Z,14.30
2019-04-26T16:17:28.961Z,8.73
2019-04-26T16:20:48.838Z,10.72
2019-04-26T16:23:57.483Z,11.73
2019-04-26T16:27:08.455Z,12.33
2019-04-26T16:30:35.409Z,12.28
2019-04-26T16:33:41.069Z,11.88
2019-04-26T16:36:47.646Z,14.03
2019-04-26T16:39:56.348Z,11.25
2019-04-26T16:43:04.159Z,10.45
2019-04-26T16:46:12.589Z,11.85
2019-04-26T16:49:19.916Z,12.80
2019-04-26T16:52:33.326Z,14.15
2019-04-26T16:55:48.887Z,12.10
2019-04-26T16:58:50.168Z,14.15
2019-04-26T17:02:01.433Z,12.23
2019-04-26T17:05:19.084Z,13.05
2019-04-26T17:08:18.988Z,12.70
2019-04-26T17:11:23.068Z,14.47
2019-04-26T17:14:29.963Z,14.05
2019-04-26T17:17:37.032Z,15.38
2019-04-26T17:20:44.938Z,11.97
2019-04-26T17:24:12.207Z,18.45
2019-04-26T17:27:19.652Z,13.00
2019-04-26T17:30:26.589Z,15.68
2019-04-26T17:33:35.551Z,17.50
2019-04-26T17:36:46.482Z,14.40
2019-04-26T17:39:57.440Z,10.60
2019-04-26T17:43:05.437Z,16.02
2019-04-26T17:46:14.575Z,12.43
2019-04-26T17:49:26.986Z,9.18
2019-04-26T17:52:35.823Z,14.85
2019-04-26T17:55:37.819Z,14.85
2019-04-26T17:58:52.466Z,14.35
2019-04-26T18:02:00.902Z,10.35
2019-04-26T18:05:03.601Z,11.18
2019-04-26T18:08:33.744Z,13.85
2019-04-26T18:11:24.757Z,10.45
2019-04-26T18:14:30.319Z,10.75
2019-04-26T18:18:17.407Z,9.58
2019-04-26T18:21:49.640Z,7.40
2019-04-26T18:24:55.786Z,8.35
2019-04-26T18:28:04.499Z,6.33
2019-04-26T18:31:14.824Z,5.95
2019-04-26T18:34:21.118Z,4.62
2019-04-26T18:37:27.905Z,3.10
2019-04-26T18:40:58.501Z,4.45
2019-04-26T18:43:46.299Z,5.17
2019-04-26T18:46:59.032Z,3.30
2019-04-26T18:50:06.768Z,3.60
2019-04-26T18:53:39.600Z,3.83
2019-04-26T18:56:49.690Z,2.55
2019-04-26T18:59:56.460Z,2.62
2019-04-26T19:03:03.052Z,2.80
2019-04-26T19:06:09.674Z,3.02
2019-04-26T19:09:18.697Z,4.30
2019-04-26T19:12:27.111Z,4.75
2019-04-26T19:15:51.695Z,4.50
2019-04-26T19:19:22.588Z,3.15
2019-04-26T19:22:22.540Z,3.45
2019-04-26T19:25:33.258Z,3.75
2019-04-26T19:28:39.929Z,4.67
2019-04-26T19:31:46.282Z,3.15
2019-04-26T19:34:52.886Z,3.85
2019-04-26T19:37:59.520Z,2.52
2019-04-26T19:41:06.124Z,3.12
2019-04-26T19:44:14.739Z,3.50
2019-04-26T19:47:35.435Z,3.85
2019-04-26T19:50:50.192Z,2.90
2019-04-26T19:54:02.753Z,4.22
2019-04-26T19:57:38.870Z,3.90
2019-04-26T20:00:46.510Z,3.92
2019-04-26T20:03:55.049Z,3.15
2019-04-26T20:07:01.257Z,3.10
2019-04-26T20:10:08.261Z,3.67
2019-04-26T20:13:16.639Z,4.00
2019-04-26T20:16:25.821Z,2.92
2019-04-26T20:19:37.305Z,2.77
2019-04-26T20:22:42.137Z,3.40
2019-04-26T20:25:52.763Z,3.67
2019-04-26T20:28:58.946Z,2.90
2019-04-26T20:32:24.025Z,3.35
2019-04-26T20:35:31.852Z,3.87
2019-04-26T20:38:45.540Z,4.15
2019-04-26T20:41:46.854Z,3.25
2019-04-26T20:44:53.882Z,5.85
2019-04-26T20:48:02.230Z,5.47
2019-04-26T20:51:11.023Z,3.72
2019-04-26T20:54:17.435Z,4.35
2019-04-26T20:57:26.631Z,4.15
2019-04-26T21:00:36.516Z,3.58
2019-04-26T21:03:45.888Z,3.62
2019-04-26T21:06:52.050Z,3.60
2019-04-26T21:09:59.507Z,3.30
2019-04-26T21:13:06.558Z,6.00
2019-04-26T21:16:15.519Z,4.80
2019-04-26T21:19:22.030Z,4.53
2019-04-26T21:22:28.931Z,4.00
2019-04-26T21:25:56.296Z,4.12
2019-04-26T21:29:33.622Z,5.90
2019-04-26T21:33:03.500Z,4.17
2019-04-26T21:36:23.224Z,4.12
2019-04-26T21:39:49.899Z,5.47
2019-04-26T21:42:59.550Z,4.70
2019-04-26T21:46:19.378Z,4.22
2019-04-26T21:49:39.932Z,5.55
2019-04-26T21:52:46.563Z,4.55
2019-04-26T21:55:54.642Z,6.22
2019-04-26T21:59:01.227Z,3.47
2019-04-26T22:02:08.337Z,6.47
2019-04-26T22:05:17.969Z,5.42
2019-04-26T22:08:30.972Z,6.00
2019-04-26T22:11:36.153Z,5.08
2019-04-26T22:14:46.444Z,5.08
2019-04-26T22:17:56.042Z,4.55
2019-04-26T22:21:08.834Z,6.45
2019-04-26T22:24:23.732Z,5.62
2019-04-26T22:27:32.070Z,5.40
2019-04-26T22:30:38.693Z,5.42
2019-04-26T22:33:45.075Z,6.78
2019-04-26T22:36:53.543Z,7.53
2019-04-26T22:39:59.751Z,7.12
2019-04-26T22:43:44.361Z,4.97
2019-04-26T22:47:09.864Z,6.67
2019-04-26T22:50:20.783Z,4.15
2019-04-26T22:53:25.860Z,6.47
2019-04-26T22:56:37.136Z,5.17
2019-04-26T22:59:49.734Z,3.45
2019-04-26T23:02:53.371Z,4.22
2019-04-26T23:05:59.952Z,5.65
2019-04-26T23:09:11.517Z,5.97
2019-04-26T23:12:34.478Z,4.20
2019-04-26T23:16:00.643Z,4.90
2019-04-26T23:19:29.877Z,5.25
2019-04-26T23:22:36.373Z,5.95
2019-04-26T23:25:43.504Z,4.60
2019-04-26T23:28:51.441Z,4.95
2019-04-26T23:31:59.520Z,5.05
2019-04-26T23:35:06.366Z,4.53
2019-04-26T23:38:14.019Z,4.65
2019-04-26T23:41:20.534Z,4.80
2019-04-26T23:44:27.000Z,5.25
2019-04-26T23:47:38.657Z,5.28
2019-04-26T23:50:43.289Z,6.35
2019-04-26T23:53:50.495Z,3.45
2019-04-26T23:56:57.919Z,4.30
